createdAt,value
2018-11-01T00:02:09.984Z,100279.98
2018-11-01T00:04:38.881Z,100281.13
2018-11-01T00:07:07.434Z,100290.27
2018-11-01T00:09:36.075Z,100296.03
2018-11-01T00:12:04.698Z,100296.55
2018-11-01T00:14:33.391Z,100291.79
2018-11-01T00:17:02.145Z,100293.03
2018-11-01T00:19:30.797Z,100291.77
2018-11-01T00:21:59.325Z,100297.42
2018-11-01T00:24:27.933Z,100291.84
2018-11-01T00:26:56.568Z,100301.62
2018-11-01T00:29:25.290Z,100292.33
2018-11-01T00:31:53.875Z,100288.32
2018-11-01T00:34:22.430Z,100288.02
2018-11-01T00:36:50.982Z,100281.02
2018-11-01T00:39:19.549Z,100275.47
2018-11-01T00:41:48.373Z,100288.84
2018-11-01T00:44:16.976Z,100287.36
2018-11-01T00:46:45.508Z,100287.67
2018-11-01T00:49:14.069Z,100277.91
2018-11-01T00:51:42.641Z,100268.55
2018-11-01T00:54:11.184Z,100258.88
2018-11-01T00:56:39.756Z,100254.36
2018-11-01T00:59:08.277Z,100253.53
2018-11-01T01:01:36.830Z,100255.28
2018-11-01T01:04:05.490Z,100252.30
2018-11-01T01:06:34.363Z,100252.92
2018-11-01T01:09:03.446Z,100253.36
2018-11-01T01:11:32.026Z,100257.67
2018-11-01T01:14:00.560Z,100259.32
2018-11-01T01:16:29.113Z,100257.88
2018-11-01T01:18:57.724Z,100255.52
2018-11-01T01:21:26.489Z,100255.41
2018-11-01T01:23:55.015Z,100240.48
2018-11-01T01:26:23.664Z,100241.50
2018-11-01T01:28:52.244Z,100236.87
2018-11-01T01:31:20.779Z,100246.34
2018-11-01T01:33:49.289Z,100233.38
2018-11-01T01:36:17.839Z,100230.91
2018-11-01T01:38:47.405Z,100230.51
2018-11-01T01:41:16.004Z,100230.51
2018-11-01T01:43:44.549Z,100227.11
2018-11-01T01:46:13.097Z,100225.98
2018-11-01T01:48:41.873Z,100217.34
2018-11-01T01:51:10.390Z,100214.16
2018-11-01T01:53:38.994Z,100217.27
2018-11-01T01:56:07.531Z,100208.75
2018-11-01T01:58:36.050Z,100205.66
2018-11-01T02:01:04.805Z,100203.83
2018-11-01T02:03:33.345Z,100199.30
2018-11-01T02:06:01.910Z,100205.77
2018-11-01T02:08:30.483Z,100195.19
2018-11-01T02:10:59.064Z,100194.37
2018-11-01T02:13:27.713Z,100194.98
2018-11-01T02:15:56.250Z,100188.89
2018-11-01T02:18:24.842Z,100183.95
2018-11-01T02:20:53.404Z,100173.34
2018-11-01T02:23:22.006Z,100174.48
2018-11-01T02:25:50.549Z,100169.96
2018-11-01T02:28:19.799Z,100165.03
2018-11-01T02:30:48.383Z,100169.22
2018-11-01T02:33:16.922Z,100163.98
2018-11-01T02:35:45.465Z,100166.05
2018-11-01T02:38:14.048Z,100166.77
2018-11-01T02:40:42.755Z,100170.85
2018-11-01T02:45:41.940Z,100177.00
2018-11-01T02:48:10.524Z,100178.33
2018-11-01T02:50:39.114Z,100179.05
2018-11-01T02:53:07.723Z,100181.73
2018-11-01T02:55:36.318Z,100174.84
2018-11-01T02:58:04.866Z,100171.22
2018-11-01T03:00:33.975Z,100165.05
2018-11-01T03:03:02.665Z,100166.28
2018-11-01T03:05:31.310Z,100163.92
2018-11-01T03:07:59.975Z,100154.98
2018-11-01T03:10:33.229Z,100155.52
2018-11-01T03:13:02.636Z,100158.42
2018-11-01T03:15:31.289Z,100155.64
2018-11-01T03:18:01.101Z,100158.10
2018-11-01T03:20:29.906Z,100144.66
2018-11-01T03:22:58.537Z,100143.62
2018-11-01T03:25:27.155Z,100145.27
2018-11-01T03:27:55.784Z,100138.99
2018-11-01T03:30:25.564Z,100136.44
2018-11-01T03:32:54.917Z,100141.56
2018-11-01T03:35:24.285Z,100131.18
2018-11-01T03:37:53.616Z,100130.36
2018-11-01T03:40:22.437Z,100113.90
2018-11-01T03:42:51.127Z,100113.28
2018-11-01T03:45:19.710Z,100103.41
2018-11-01T03:47:48.635Z,100104.14
2018-11-01T03:50:17.429Z,100106.51
2018-11-01T03:52:46.000Z,100105.48
2018-11-01T03:55:14.539Z,100096.42
2018-11-01T03:57:43.495Z,100101.38
2018-11-01T04:00:14.517Z,100102.81
2018-11-01T04:02:45.086Z,100108.45
2018-11-01T04:05:13.660Z,100100.87
2018-11-01T04:07:43.435Z,100101.56
2018-11-01T04:10:12.306Z,100108.97
2018-11-01T04:12:42.161Z,100112.79
2018-11-01T04:15:12.762Z,100106.28
2018-11-01T04:17:41.350Z,100106.20
2018-11-01T04:20:11.177Z,100104.45
2018-11-01T04:22:40.505Z,100102.80
2018-11-01T04:25:09.069Z,100099.31
2018-11-01T04:27:37.865Z,100092.23
2018-11-01T04:30:07.228Z,100099.52
2018-11-01T04:32:35.750Z,100105.59
2018-11-01T04:35:04.630Z,100100.55
2018-11-01T04:37:33.339Z,100098.91
2018-11-01T04:40:01.997Z,100101.45
2018-11-01T04:42:30.557Z,100099.72
2018-11-01T04:44:59.336Z,100105.78
2018-11-01T04:47:28.054Z,100112.47
2018-11-01T04:49:56.745Z,100104.23
2018-11-01T04:52:25.274Z,100105.78
2018-11-01T04:54:53.869Z,100101.26
2018-11-01T04:57:22.445Z,100113.50
2018-11-01T04:59:50.991Z,100109.57
2018-11-01T05:02:19.516Z,100107.51
2018-11-01T05:04:48.156Z,100105.36
2018-11-01T05:07:16.889Z,100111.84
2018-11-01T05:09:45.528Z,100113.88
2018-11-01T05:12:14.186Z,100116.17
2018-11-01T05:14:42.790Z,100106.72
2018-11-01T05:17:11.301Z,100104.16
2018-11-01T05:19:39.902Z,100099.92
2018-11-01T05:22:08.762Z,100093.73
2018-11-01T05:24:37.519Z,100094.09
2018-11-01T05:27:06.747Z,100100.03
2018-11-01T05:29:35.312Z,100104.08
2018-11-01T05:32:03.926Z,100102.52
2018-11-01T05:34:32.509Z,100096.09
2018-11-01T05:37:01.233Z,100106.79
2018-11-01T05:39:29.807Z,100104.17
2018-11-01T05:41:58.381Z,100114.14
2018-11-01T05:44:26.913Z,100105.26
2018-11-01T05:46:55.509Z,100108.84
2018-11-01T05:49:24.214Z,100118.08
2018-11-01T05:51:52.820Z,100115.73
2018-11-01T05:54:21.372Z,100116.79
2018-11-01T05:56:49.911Z,100111.17
2018-11-01T05:59:18.479Z,100108.98
2018-11-01T06:01:52.800Z,100112.81
2018-11-01T06:04:21.411Z,100107.41
2018-11-01T06:06:50.007Z,100117.58
2018-11-01T06:09:23.860Z,100116.71
2018-11-01T06:11:52.401Z,100123.45
2018-11-01T06:14:21.047Z,100125.41
2018-11-01T06:16:49.658Z,100125.21
2018-11-01T06:19:18.188Z,100124.44
2018-11-01T06:21:46.830Z,100134.15
2018-11-01T06:24:15.805Z,100121.95
2018-11-01T06:26:44.350Z,100118.52
2018-11-01T06:29:12.963Z,100114.49
2018-11-01T06:31:41.497Z,100118.29
2018-11-01T06:34:14.390Z,100120.09
2018-11-01T06:36:42.931Z,100111.33
2018-11-01T06:39:11.462Z,100122.91
2018-11-01T06:41:40.002Z,100118.53
2018-11-01T06:44:08.537Z,100117.42
2018-11-01T06:46:37.155Z,100104.05
2018-11-01T06:49:06.355Z,100107.94
2018-11-01T06:51:34.882Z,100101.86
2018-11-01T06:54:03.477Z,100101.08
2018-11-01T06:56:31.993Z,100103.41
2018-11-01T06:59:00.658Z,100097.09
2018-11-01T07:01:29.342Z,100092.83
2018-11-01T07:03:57.911Z,100090.08
2018-11-01T07:06:26.499Z,100081.08
2018-11-01T07:08:55.054Z,100087.57
2018-11-01T07:11:23.685Z,100072.57
2018-11-01T07:13:52.358Z,100074.56
2018-11-01T07:16:20.869Z,100076.58
2018-11-01T07:18:49.424Z,100075.80
2018-11-01T07:21:17.973Z,100074.13
2018-11-01T07:23:46.658Z,100061.82
2018-11-01T07:26:15.341Z,100063.36
2018-11-01T07:28:44.358Z,100075.66
2018-11-01T07:31:12.907Z,100079.73
2018-11-01T07:33:41.654Z,100071.17
2018-11-01T07:36:10.291Z,100067.14
2018-11-01T07:38:38.914Z,100077.02
2018-11-01T07:41:08.151Z,100060.75
2018-11-01T07:43:41.339Z,100070.02
2018-11-01T07:46:22.416Z,100071.79
2018-11-01T07:48:51.045Z,100065.05
2018-11-01T07:51:21.763Z,100074.78
2018-11-01T07:53:51.639Z,100064.83
2018-11-01T07:56:20.445Z,100058.53
2018-11-01T07:58:49.241Z,100057.15
2018-11-01T08:01:18.353Z,100057.87
2018-11-01T08:03:46.934Z,100063.36
2018-11-01T08:06:15.464Z,100058.53
2018-11-01T08:08:44.076Z,100045.13
2018-11-01T08:11:12.794Z,100042.12
2018-11-01T08:13:41.462Z,100039.91
2018-11-01T08:16:10.101Z,100034.69
2018-11-01T08:18:38.942Z,100023.20
2018-11-01T08:21:07.786Z,100015.12
2018-11-01T08:23:36.517Z,100013.86
2018-11-01T08:26:05.382Z,100010.95
2018-11-01T08:28:33.925Z,100009.88
2018-11-01T08:31:02.462Z,100021.15
2018-11-01T08:33:31.014Z,100007.44
2018-11-01T08:35:59.756Z,100007.83
2018-11-01T08:38:28.375Z,100003.77
2018-11-01T08:40:57.194Z,100004.66
2018-11-01T08:43:25.966Z,100015.34
2018-11-01T08:45:54.518Z,100001.77
2018-11-01T08:48:23.562Z,100011.28
2018-11-01T08:50:52.234Z,100005.88
2018-11-01T08:53:21.703Z,100002.77
2018-11-01T08:55:50.376Z,100006.52
2018-11-01T08:58:19.041Z,99999.48
2018-11-01T09:00:47.755Z,100004.06
2018-11-01T09:03:16.852Z,99999.74
2018-11-01T09:05:45.607Z,99998.70
2018-11-01T09:08:14.186Z,99995.28
2018-11-01T09:10:42.721Z,99996.72
2018-11-01T09:13:11.569Z,99993.20
2018-11-01T09:15:40.977Z,99996.42
2018-11-01T09:18:09.682Z,100008.06
2018-11-01T09:20:38.265Z,100003.48
2018-11-01T09:23:07.045Z,99991.35
2018-11-01T09:25:35.702Z,99987.38
2018-11-01T09:28:04.325Z,99982.86
2018-11-01T09:30:33.044Z,99989.64
2018-11-01T09:33:01.840Z,99982.53
2018-11-01T09:35:30.470Z,99978.99
2018-11-01T09:38:02.765Z,99986.83
2018-11-01T09:40:31.330Z,99975.89
2018-11-01T09:42:59.853Z,99982.09
2018-11-01T09:45:28.444Z,99979.12
2018-11-01T09:47:57.455Z,99980.77
2018-11-01T09:50:26.985Z,99993.24
2018-11-01T09:52:55.819Z,99964.58
2018-11-01T09:55:24.860Z,99965.38
2018-11-01T09:57:55.470Z,99971.35
2018-11-01T10:00:24.760Z,99959.99
2018-11-01T10:02:54.105Z,99952.16
2018-11-01T10:05:25.862Z,99942.19
2018-11-01T10:07:54.680Z,99940.05
2018-11-01T10:10:23.266Z,99936.92
2018-11-01T10:12:51.812Z,99925.02
2018-11-01T10:15:20.377Z,99917.73
2018-11-01T10:17:49.444Z,99912.84
2018-11-01T10:20:17.861Z,99897.95
2018-11-01T10:22:46.556Z,99890.64
2018-11-01T10:25:16.184Z,99888.54
2018-11-01T10:27:44.970Z,99881.33
2018-11-01T10:30:17.660Z,99875.73
2018-11-01T10:32:46.654Z,99855.73
2018-11-01T10:35:16.436Z,99853.28
2018-11-01T10:37:52.029Z,99866.56
2018-11-01T10:40:22.453Z,99860.09
2018-11-01T10:42:51.421Z,99861.19
2018-11-01T10:45:20.425Z,99854.45
2018-11-01T10:47:50.046Z,99853.09
2018-11-01T10:50:20.360Z,99858.75
2018-11-01T10:52:49.895Z,99870.12
2018-11-01T10:55:18.827Z,99855.19
2018-11-01T10:57:47.675Z,99865.48
2018-11-01T11:00:21.703Z,99859.52
2018-11-01T11:02:51.593Z,99860.06
2018-11-01T11:05:21.395Z,99862.27
2018-11-01T11:07:50.261Z,99858.75
2018-11-01T11:10:19.080Z,99866.64
2018-11-01T11:12:47.629Z,99857.70
2018-11-01T11:15:16.177Z,99850.38
2018-11-01T11:17:44.745Z,99845.27
2018-11-01T11:20:13.596Z,99851.52
2018-11-01T11:22:42.335Z,99852.61
2018-11-01T11:25:12.085Z,99848.27
2018-11-01T11:27:40.788Z,99849.37
2018-11-01T11:30:10.767Z,99846.40
2018-11-01T11:32:39.620Z,99852.91
2018-11-01T11:35:08.773Z,99848.81
2018-11-01T11:37:37.342Z,99843.98
2018-11-01T11:40:07.345Z,99830.44
2018-11-01T11:42:35.987Z,99842.66
2018-11-01T11:45:05.004Z,99837.48
2018-11-01T11:47:33.545Z,99832.06
2018-11-01T11:50:02.070Z,99823.39
2018-11-01T11:52:32.724Z,99819.58
2018-11-01T11:55:03.315Z,99833.14
2018-11-01T11:57:33.957Z,99819.59
2018-11-01T12:00:02.594Z,99804.41
2018-11-01T12:02:32.192Z,99802.80
2018-11-01T12:05:00.852Z,99796.83
2018-11-01T12:07:29.373Z,99794.13
2018-11-01T12:09:57.950Z,99787.34
2018-11-01T12:12:26.572Z,99806.62
2018-11-01T12:14:55.093Z,99796.30
2018-11-01T12:17:23.667Z,99794.14
2018-11-01T12:19:52.256Z,99774.87
2018-11-01T12:22:21.508Z,99779.23
2018-11-01T12:24:50.743Z,99783.27
2018-11-01T12:27:20.566Z,99762.67
2018-11-01T12:29:49.840Z,99764.83
2018-11-01T12:32:27.723Z,99763.45
2018-11-01T12:34:57.097Z,99762.94
2018-11-01T12:37:27.761Z,99755.05
2018-11-01T12:39:57.364Z,99757.78
2018-11-01T12:42:31.682Z,99748.03
2018-11-01T12:45:00.616Z,99762.38
2018-11-01T12:47:32.201Z,99757.75
2018-11-01T12:50:01.176Z,99761.82
2018-11-01T12:52:30.212Z,99756.39
2018-11-01T12:54:59.119Z,99774.02
2018-11-01T12:57:28.132Z,99755.05
2018-11-01T12:59:58.517Z,99760.48
2018-11-01T13:02:27.550Z,99757.78
2018-11-01T13:04:57.939Z,99749.09
2018-11-01T13:07:27.036Z,99743.40
2018-11-01T13:09:55.806Z,99751.80
2018-11-01T13:12:24.498Z,99752.07
2018-11-01T13:14:53.102Z,99755.34
2018-11-01T13:17:21.852Z,99747.19
2018-11-01T13:19:50.698Z,99742.84
2018-11-01T13:22:19.246Z,99741.23
2018-11-01T13:24:47.797Z,99748.00
2018-11-01T13:27:16.398Z,99726.86
2018-11-01T13:29:44.949Z,99735.26
2018-11-01T13:32:15.152Z,99733.39
2018-11-01T13:34:43.786Z,99723.62
2018-11-01T13:37:12.521Z,99721.45
2018-11-01T13:39:41.197Z,99712.75
2018-11-01T13:42:09.947Z,99706.50
2018-11-01T13:44:38.697Z,99711.66
2018-11-01T13:47:07.259Z,99709.24
2018-11-01T13:49:36.039Z,99698.68
2018-11-01T13:52:04.630Z,99697.05
2018-11-01T13:54:33.176Z,99693.78
2018-11-01T13:57:02.003Z,99696.77
2018-11-01T13:59:30.565Z,99694.08
2018-11-01T14:01:59.133Z,99691.89
2018-11-01T14:04:27.749Z,99685.39
2018-11-01T14:06:56.349Z,99684.05
2018-11-01T14:09:24.877Z,99680.78
2018-11-01T14:11:53.457Z,99681.06
2018-11-01T14:14:22.366Z,99689.20
2018-11-01T14:16:50.768Z,99691.90
2018-11-01T14:19:19.355Z,99684.56
2018-11-01T14:21:47.897Z,99687.02
2018-11-01T14:24:16.495Z,99683.50
2018-11-01T14:26:45.124Z,99689.44
2018-11-01T14:29:13.741Z,99689.73
2018-11-01T14:31:42.282Z,99686.19
2018-11-01T14:34:10.862Z,99696.73
2018-11-01T14:36:39.482Z,99705.41
2018-11-01T14:39:10.026Z,99703.77
2018-11-01T14:41:38.597Z,99695.05
2018-11-01T14:44:07.353Z,99710.72
2018-11-01T14:46:36.042Z,99704.20
2018-11-01T14:49:04.613Z,99703.63
2018-11-01T14:51:33.746Z,99701.45
2018-11-01T14:54:02.837Z,99691.41
2018-11-01T14:56:32.374Z,99689.48
2018-11-01T14:59:01.073Z,99684.61
2018-11-01T15:01:28.540Z,99676.19
2018-11-01T15:03:57.106Z,99673.48
2018-11-01T15:06:25.681Z,99679.13
2018-11-01T15:08:54.594Z,99679.66
2018-11-01T15:11:23.647Z,99682.06
2018-11-01T15:13:52.261Z,99687.19
2018-11-01T15:16:20.823Z,99678.00
2018-11-01T15:18:49.582Z,99674.20
2018-11-01T15:21:18.417Z,99673.09
2018-11-01T15:23:47.354Z,99683.89
2018-11-01T15:26:16.004Z,99687.91
2018-11-01T15:28:44.717Z,99684.93
2018-11-01T15:31:13.348Z,99675.43
2018-11-01T15:33:42.111Z,99677.02
2018-11-01T15:36:10.832Z,99676.78
2018-11-01T15:38:39.437Z,99680.59
2018-11-01T15:41:12.390Z,99694.13
2018-11-01T15:43:41.467Z,99691.38
2018-11-01T15:46:10.884Z,99694.36
2018-11-01T15:48:40.144Z,99702.47
2018-11-01T15:51:09.655Z,99700.03
2018-11-01T15:53:38.406Z,99699.45
2018-11-01T15:56:07.112Z,99699.70
2018-11-01T15:58:35.983Z,99706.69
2018-11-01T16:01:05.312Z,99705.33
2018-11-01T16:03:34.001Z,99703.11
2018-11-01T16:06:03.037Z,99701.75
2018-11-01T16:08:31.583Z,99693.58
2018-11-01T16:11:00.241Z,99685.41
2018-11-01T16:13:28.913Z,99677.83
2018-11-01T16:15:57.551Z,99674.58
2018-11-01T16:18:26.459Z,99671.84
2018-11-01T16:20:55.050Z,99675.88
2018-11-01T16:23:23.699Z,99687.77
2018-11-01T16:25:52.432Z,99686.41
2018-11-01T16:28:21.053Z,99692.84
2018-11-01T16:30:49.637Z,99699.85
2018-11-01T16:33:18.199Z,99696.55
2018-11-01T16:35:46.784Z,99707.88
2018-11-01T16:38:15.390Z,99707.55
2018-11-01T16:40:43.962Z,99705.29
2018-11-01T16:43:12.621Z,99703.86
2018-11-01T16:45:41.563Z,99700.31
2018-11-01T16:48:10.291Z,99703.11
2018-11-01T16:50:38.941Z,99712.42
2018-11-01T16:53:07.702Z,99722.84
2018-11-01T16:55:36.339Z,99723.36
2018-11-01T16:58:05.292Z,99714.20
2018-11-01T17:00:33.894Z,99711.77
2018-11-01T17:03:02.631Z,99722.56
2018-11-01T17:05:31.237Z,99717.70
2018-11-01T17:07:59.879Z,99699.91
2018-11-01T17:10:28.482Z,99695.35
2018-11-01T17:12:57.517Z,99690.21
2018-11-01T17:15:26.053Z,99696.94
2018-11-01T17:17:54.659Z,99701.28
2018-11-01T17:20:23.214Z,99695.61
2018-11-01T17:22:52.497Z,99705.61
2018-11-01T17:25:21.211Z,99697.28
2018-11-01T17:27:49.793Z,99697.28
2018-11-01T17:30:18.403Z,99686.49
2018-11-01T17:32:50.537Z,99688.44
2018-11-01T17:35:19.102Z,99692.76
2018-11-01T17:37:47.753Z,99701.70
2018-11-01T17:40:16.437Z,99712.72
2018-11-01T17:42:45.511Z,99715.95
2018-11-01T17:45:14.116Z,99702.98
2018-11-01T17:47:43.271Z,99705.07
2018-11-01T17:50:13.365Z,99708.80
2018-11-01T17:52:42.518Z,99717.08
2018-11-01T17:55:12.072Z,99717.81
2018-11-01T17:57:41.022Z,99714.81
2018-11-01T18:00:11.971Z,99720.72
2018-11-01T18:02:41.488Z,99723.95
2018-11-01T18:05:10.751Z,99727.72
2018-11-01T18:07:39.909Z,99718.22
2018-11-01T18:10:10.362Z,99714.66
2018-11-01T18:12:39.087Z,99721.97
2018-11-01T18:15:08.271Z,99711.16
2018-11-01T18:17:36.946Z,99706.30
2018-11-01T18:20:07.418Z,99706.06
2018-11-01T18:22:36.054Z,99701.51
2018-11-01T18:25:05.012Z,99700.75
2018-11-01T18:27:33.757Z,99703.21
2018-11-01T18:30:02.488Z,99692.16
2018-11-01T18:32:31.928Z,99675.95
2018-11-01T18:35:01.089Z,99680.89
2018-11-01T18:37:30.591Z,99686.31
2018-11-01T18:39:59.988Z,99682.55
2018-11-01T18:42:29.610Z,99698.98
2018-11-01T18:44:59.711Z,99696.23
2018-11-01T18:47:29.196Z,99700.52
2018-11-01T18:49:59.106Z,99686.39
2018-11-01T18:52:28.492Z,99689.33
2018-11-01T18:54:58.064Z,99693.58
2018-11-01T18:57:28.044Z,99687.85
2018-11-01T18:59:58.432Z,99691.56
2018-11-01T19:02:29.525Z,99696.42
2018-11-01T19:04:58.911Z,99684.80
2018-11-01T19:07:30.961Z,99686.66
2018-11-01T19:10:02.203Z,99696.42
2018-11-01T19:12:33.649Z,99706.39
2018-11-01T19:15:03.813Z,99702.34
2018-11-01T19:17:35.283Z,99702.09
2018-11-01T19:20:05.204Z,99711.53
2018-11-01T19:22:34.863Z,99715.27
2018-11-01T19:25:04.451Z,99716.31
2018-11-01T19:27:33.844Z,99714.88
2018-11-01T19:30:03.851Z,99719.85
2018-11-01T19:32:33.247Z,99728.41
2018-11-01T19:35:05.014Z,99728.34
2018-11-01T19:37:34.771Z,99725.38
2018-11-01T19:40:05.489Z,99738.03
2018-11-01T19:42:35.195Z,99748.53
2018-11-01T19:45:05.547Z,99742.61
2018-11-01T19:47:35.180Z,99742.89
2018-11-01T19:50:05.438Z,99751.01
2018-11-01T19:52:35.526Z,99755.48
2018-11-01T19:55:05.705Z,99754.67
2018-11-01T19:57:35.842Z,99763.04
2018-11-01T20:00:07.222Z,99761.95
2018-11-01T20:02:37.377Z,99761.32
2018-11-01T20:05:09.523Z,99771.50
2018-11-01T20:07:40.090Z,99771.56
2018-11-01T20:10:12.381Z,99771.56
2018-11-01T20:12:43.309Z,99761.41
2018-11-01T20:15:15.037Z,99769.88
2018-11-01T20:17:45.778Z,99776.17
2018-11-01T20:20:15.815Z,99775.92
2018-11-01T20:22:48.007Z,99784.59
2018-11-01T20:25:18.089Z,99790.80
2018-11-01T20:27:48.313Z,99791.92
2018-11-01T20:30:18.605Z,99792.43
2018-11-01T20:32:48.587Z,99789.05
2018-11-01T20:35:18.095Z,99788.89
2018-11-01T20:37:47.433Z,99789.02
2018-11-01T20:40:16.257Z,99787.52
2018-11-01T20:42:44.938Z,99789.70
2018-11-01T20:45:14.182Z,99790.67
2018-11-01T20:47:42.785Z,99787.80
2018-11-01T20:50:12.720Z,99793.84
2018-11-01T20:52:41.495Z,99786.00
2018-11-01T20:55:10.138Z,99783.90
2018-11-01T20:57:38.835Z,99785.28
2018-11-01T21:00:09.453Z,99784.74
2018-11-01T21:02:38.225Z,99787.97
2018-11-01T21:05:07.325Z,99796.71
2018-11-01T21:07:36.059Z,99802.13
2018-11-01T21:10:05.419Z,99808.97
2018-11-01T21:12:33.998Z,99817.90
2018-11-01T21:15:02.691Z,99819.22
2018-11-01T21:17:31.281Z,99822.14
2018-11-01T21:19:59.910Z,99823.92
2018-11-01T21:22:28.649Z,99823.55
2018-11-01T21:24:57.198Z,99812.20
2018-11-01T21:27:25.924Z,99807.12
2018-11-01T21:29:54.510Z,99814.40
2018-11-01T21:32:23.281Z,99801.42
2018-11-01T21:34:51.868Z,99797.94
2018-11-01T21:37:21.468Z,99799.62
2018-11-01T21:39:50.110Z,99809.63
2018-11-01T21:42:18.687Z,99806.49
2018-11-01T21:44:47.331Z,99812.45
2018-11-01T21:47:16.046Z,99807.36
2018-11-01T21:49:44.654Z,99805.77
2018-11-01T21:52:13.283Z,99801.49
2018-11-01T21:54:41.838Z,99805.00
2018-11-01T21:57:10.453Z,99800.98
2018-11-01T21:59:39.054Z,99801.49
2018-11-01T22:02:07.670Z,99800.96
2018-11-01T22:04:36.249Z,99796.30
2018-11-01T22:07:05.488Z,99795.00
2018-11-01T22:09:34.227Z,99789.83
2018-11-01T22:12:03.306Z,99788.16
2018-11-01T22:14:31.889Z,99797.43
2018-11-01T22:17:00.420Z,99791.52
2018-11-01T22:19:29.320Z,99792.52
2018-11-01T22:21:58.121Z,99781.45
2018-11-01T22:24:26.716Z,99789.28
2018-11-01T22:26:55.254Z,99811.64
2018-11-01T22:29:26.230Z,99846.09
2018-11-01T22:31:54.800Z,99839.45
2018-11-01T22:34:23.365Z,99838.11
2018-11-01T22:36:51.925Z,99829.78
2018-11-01T22:39:20.606Z,99833.25
2018-11-01T22:41:51.149Z,99844.97
2018-11-01T22:44:19.761Z,99854.00
2018-11-01T22:46:48.359Z,99853.18
2018-11-01T22:49:17.034Z,99856.89
2018-11-01T22:51:45.619Z,99847.22
2018-11-01T22:54:14.172Z,99835.89
2018-11-01T22:56:42.767Z,99843.19
2018-11-01T22:59:11.354Z,99849.14
2018-11-01T23:01:39.935Z,99849.92
2018-11-01T23:04:08.529Z,99858.28
2018-11-01T23:06:37.266Z,99859.62
2018-11-01T23:09:08.550Z,99858.52
2018-11-01T23:11:37.526Z,99869.53
2018-11-01T23:14:06.193Z,99870.65
2018-11-01T23:16:35.093Z,99867.45
2018-11-01T23:19:03.637Z,99872.23
2018-11-01T23:21:32.201Z,99878.14
2018-11-01T23:24:00.807Z,99878.34
2018-11-01T23:26:29.433Z,99888.98
2018-11-01T23:28:58.198Z,99890.05
2018-11-01T23:31:27.296Z,99893.75
2018-11-01T23:33:55.893Z,99897.50
2018-11-01T23:36:23.611Z,99909.81
2018-11-01T23:38:57.446Z,99913.92
2018-11-01T23:41:31.378Z,99920.62
2018-11-01T23:44:05.447Z,99935.66
2018-11-01T23:46:40.035Z,99942.69
2018-11-01T23:49:13.309Z,99939.27
2018-11-01T23:51:42.558Z,99937.52
2018-11-01T23:54:11.352Z,99946.25
2018-11-01T23:56:40.115Z,99947.36
2018-11-01T23:59:08.713Z,99947.50
